Lawtell, Louisiana
Current Conditions -  °F | °C
As of 3:35 PM on Wednesday 26 Nov 2014 (Local Time) from KOPL Reporting Station
Clear Clear  
Wind Chill: 68°   Ceiling: Unl
Heat Index: 68°   Visibility: 10mi
Dew Point: 42°   Wind: 12mph
Humidity: 38%   Direction: 240°WSW
Pressure: 30.17"   Gusts: 17mph
Location:  30.52°N, 92.19°W
Report Text: KOPL 262135Z AUTO 24010G15KT 10SM CLR 20/05 A3017 RMK AO2 T02020053
Loading
Personal Weather Stations






























Interactive Weather Map New forecast layout! Learn more

10-Day Weather Forecast

Advertisements
Track Severe Weather on mobile